Time;durP1;ratioP1;P1;durP2;ratioP2;P2;SDS_P1;SDS_P2;PMS_P1;PMS_P2;Temp;Humidity;BMP_temperature;BMP_pressure;BME280_temperature;BME280_humidity;BME280_pressure;Samples;Min_cycle;Max_cycle;Signal;HPM_P1;HPM_P2
2022/03/03 00:01:56;;;;;;;16.38;9.68;;;;;;;2.53;59.36;102150.28;5046196;28;20035;-65
2022/03/03 00:04:22;;;;;;;19.25;10.27;;;;;;;2.51;59.42;102154.59;5042799;28;20067;-66
2022/03/03 00:06:47;;;;;;;23.60;10.23;;;;;;;2.46;59.77;102156.19;5039583;28;20049;-66
2022/03/03 00:09:12;;;;;;;15.48;9.45;;;;;;;2.43;59.67;102150.03;5039652;28;20060;-67
2022/03/03 00:11:38;;;;;;;17.15;10.25;;;;;;;2.49;59.57;102157.97;5047620;28;20051;-67
2022/03/03 00:14:04;;;;;;;23.23;10.55;;;;;;;2.45;59.66;102159.66;5044176;28;20028;-68
2022/03/03 00:16:29;;;;;;;18.48;9.60;;;;;;;2.45;59.32;102150.97;5028056;28;20021;-68
2022/03/03 00:18:55;;;;;;;16.83;9.88;;;;;;;2.42;59.15;102146.59;5037380;28;20024;-68
2022/03/03 00:21:20;;;;;;;21.02;11.07;;;;;;;2.40;59.42;102156.94;5067069;28;20070;-67
2022/03/03 00:23:46;;;;;;;20.90;10.65;;;;;;;2.41;59.74;102152.63;5049735;28;20048;-66
2022/03/03 00:26:11;;;;;;;17.52;10.25;;;;;;;2.37;59.69;102151.69;5034163;28;20022;-67
2022/03/03 00:28:36;;;;;;;21.27;9.82;;;;;;;2.34;59.66;102150.72;5036189;28;20116;-64
2022/03/03 00:31:03;;;;;;;20.27;10.38;;;;;;;2.34;59.48;102149.00;5032732;28;20114;-66
2022/03/03 00:33:28;;;;;;;19.95;9.75;;;;;;;2.37;60.13;102149.09;5055094;28;20038;-68
2022/03/03 00:35:54;;;;;;;16.38;10.18;;;;;;;2.41;59.53;102152.63;5035084;28;20071;-69
2022/03/03 00:38:19;;;;;;;18.23;9.50;;;;;;;2.42;59.56;102157.00;5026824;28;20068;-70
2022/03/03 00:40:44;;;;;;;14.23;9.27;;;;;;;2.48;59.17;102148.44;5026894;28;20025;-67
2022/03/03 00:43:10;;;;;;;17.60;10.10;;;;;;;2.50;59.24;102154.56;5029803;28;20063;-67
2022/03/03 00:45:36;;;;;;;18.92;10.38;;;;;;;2.47;59.22;102144.94;5036979;28;20036;-67
2022/03/03 00:48:02;;;;;;;22.63;10.65;;;;;;;2.51;59.11;102140.69;5035143;28;20640;-68
2022/03/03 00:50:27;;;;;;;22.33;10.38;;;;;;;2.47;58.95;102139.72;5025441;28;20034;-67
2022/03/03 00:52:53;;;;;;;15.48;9.88;;;;;;;2.45;59.01;102137.94;5026631;28;20148;-67
2022/03/03 00:55:18;;;;;;;24.05;9.68;;;;;;;2.39;59.51;102141.31;5037180;28;20036;-68
2022/03/03 00:57:44;;;;;;;17.98;10.65;;;;;;;2.36;59.42;102143.84;5046574;28;20021;-66
2022/03/03 01:00:10;;;;;;;16.02;9.77;;;;;;;2.31;59.68;102148.94;5043352;28;20539;-68
2022/03/03 01:02:35;;;;;;;20.05;10.35;;;;;;;2.20;60.29;102140.03;5045850;28;20475;-67
2022/03/03 01:05:01;;;;;;;15.00;9.40;;;;;;;2.15;60.63;102137.31;5046713;28;20120;-67
2022/03/03 01:07:27;;;;;;;18.83;10.40;;;;;;;2.14;60.21;102135.59;5043992;28;20096;-68
2022/03/03 01:09:52;;;;;;;15.55;9.43;;;;;;;2.10;60.77;102133.72;5045886;28;20053;-66
2022/03/03 01:12:18;;;;;;;17.73;9.25;;;;;;;2.01;61.20;102124.91;5033250;28;20479;-66
2022/03/03 01:14:43;;;;;;;15.48;9.82;;;;;;;2.00;61.63;102122.25;5033726;28;20694;-68
2022/03/03 01:17:09;;;;;;;16.83;9.57;;;;;;;1.95;61.88;102118.66;5034325;28;20028;-68
2022/03/03 01:19:34;;;;;;;17.80;10.18;;;;;;;1.96;61.74;102115.25;5026708;28;20064;-68
2022/03/03 01:21:59;;;;;;;21.52;10.45;;;;;;;1.87;62.00;102121.97;5024970;28;20121;-67
2022/03/03 01:24:25;;;;;;;17.55;10.40;;;;;;;1.88;61.94;102113.34;5027722;28;20060;-67
2022/03/03 01:26:50;;;;;;;18.85;10.77;;;;;;;1.83;62.47;102111.47;5033174;28;20040;-68
2022/03/03 01:29:15;;;;;;;16.58;11.00;;;;;;;1.82;62.62;102112.31;5037361;28;20013;-69
2022/03/03 01:31:41;;;;;;;15.70;10.02;;;;;;;1.81;62.58;102105.38;5043360;28;20025;-68
2022/03/03 01:34:08;;;;;;;17.50;9.60;;;;;;;1.80;62.72;102098.44;5045238;28;20119;-68
2022/03/03 01:36:34;;;;;;;16.98;9.63;;;;;;;1.77;62.80;102100.09;5041889;28;20487;-67
2022/03/03 01:38:59;;;;;;;18.10;11.07;;;;;;;1.70;63.28;102090.41;5045357;28;20159;-66
2022/03/03 01:41:25;;;;;;;20.40;11.60;;;;;;;1.70;63.59;102089.53;5039587;28;20025;-66
2022/03/03 01:43:50;;;;;;;21.77;10.85;;;;;;;1.73;63.89;102087.88;5046629;28;20024;-67
2022/03/03 01:46:16;;;;;;;21.13;11.25;;;;;;;1.76;63.76;102087.97;5042433;28;20086;-68
2022/03/03 01:48:43;;;;;;;19.63;11.40;;;;;;;1.84;63.30;102088.09;5042101;28;20071;-66
2022/03/03 01:51:08;;;;;;;20.80;11.25;;;;;;;1.81;63.76;102077.66;5058239;28;20066;-67
2022/03/03 01:53:34;;;;;;;19.55;11.57;;;;;;;1.84;64.02;102085.50;5044933;28;20468;-66
2022/03/03 01:55:59;;;;;;;17.90;10.77;;;;;;;1.79;64.23;102081.94;5038241;28;20129;-67
2022/03/03 01:58:24;;;;;;;16.50;10.20;;;;;;;1.75;64.14;102080.13;5031700;28;20059;-66
2022/03/03 02:00:51;;;;;;;20.48;11.95;;;;;;;1.74;64.04;102075.75;5036297;28;20043;-67
2022/03/03 02:03:16;;;;;;;18.73;10.98;;;;;;;1.76;64.08;102074.06;5044690;28;20021;-68
2022/03/03 02:05:42;;;;;;;20.15;11.48;;;;;;;1.70;64.08;102072.22;5046037;28;20103;-67
2022/03/03 02:08:07;;;;;;;17.45;10.88;;;;;;;1.67;64.48;102066.06;5064957;28;20032;-64
2022/03/03 02:10:32;;;;;;;19.63;10.93;;;;;;;1.61;64.66;102061.59;5067688;22;20045;-67
2022/03/03 02:12:58;;;;;;;18.63;11.50;;;;;;;1.58;64.74;102056.34;5037467;28;20124;-67
2022/03/03 02:15:23;;;;;;;18.88;11.63;;;;;;;1.59;64.67;102058.97;5042175;28;20021;-66
2022/03/03 02:17:48;;;;;;;19.40;12.05;;;;;;;1.60;65.28;102057.25;5044649;28;20178;-70
2022/03/03 02:20:21;;;;;;;30.35;12.38;;;;;;;1.66;64.78;102053.91;5039736;28;20607;-66
2022/03/03 02:22:48;;;;;;;19.35;10.57;;;;;;;1.68;64.68;102055.69;5051045;28;20037;-66
2022/03/03 02:25:14;;;;;;;18.25;10.57;;;;;;;1.68;64.07;102058.28;5052592;28;20040;-66
2022/03/03 02:27:40;;;;;;;21.85;11.52;;;;;;;1.66;64.38;102053.91;5041760;28;20029;-67
2022/03/03 02:30:05;;;;;;;19.17;11.98;;;;;;;1.64;64.76;102051.28;5035289;28;20018;-66
2022/03/03 02:32:30;;;;;;;20.25;11.80;;;;;;;1.67;64.71;102051.34;5033969;28;20478;-68
2022/03/03 02:34:58;;;;;;;21.92;12.55;;;;;;;1.68;64.56;102053.09;5037502;28;20044;-68
2022/03/03 02:37:24;;;;;;;20.52;11.82;;;;;;;1.66;64.82;102054.81;5033307;28;20538;-70
2022/03/03 02:39:49;;;;;;;17.08;11.32;;;;;;;1.68;64.73;102053.09;5037815;28;20041;-66
2022/03/03 02:42:14;;;;;;;18.65;11.10;;;;;;;1.67;64.51;102040.97;5043989;28;20036;-66
2022/03/03 02:44:40;;;;;;;19.73;11.35;;;;;;;1.69;64.77;102049.69;5043330;28;20028;-68
2022/03/03 02:47:05;;;;;;;20.50;11.48;;;;;;;1.73;64.25;102035.91;5035827;28;20391;-68
2022/03/03 02:49:30;;;;;;;18.48;11.50;;;;;;;1.75;64.29;102047.19;5033301;28;20109;-68
2022/03/03 02:51:56;;;;;;;26.17;12.05;;;;;;;1.75;64.07;102047.19;5024842;28;20123;-67
2022/03/03 02:54:21;;;;;;;20.05;11.50;;;;;;;1.71;64.53;102045.38;5061356;28;20068;-69
2022/03/03 02:59:31;;;;;;;23.42;12.75;;;;;;;1.61;64.87;102036.50;5043229;28;20048;-69
2022/03/03 03:01:56;;;;;;;20.40;11.32;;;;;;;1.57;64.83;102036.41;5044094;28;20024;-67
2022/03/03 03:04:22;;;;;;;16.58;10.27;;;;;;;1.54;65.01;102033.72;5044089;28;20111;-67
2022/03/03 03:06:47;;;;;;;20.63;11.48;;;;;;;1.50;65.33;102043.16;5044314;28;20854;-66
2022/03/03 03:09:12;;;;;;;21.85;12.63;;;;;;;1.48;66.42;102037.94;5041216;28;20538;-68
2022/03/03 03:11:38;;;;;;;20.98;11.45;;;;;;;1.51;65.59;102040.59;5034907;28;20475;-67
2022/03/03 03:14:04;;;;;;;19.15;11.48;;;;;;;1.49;65.69;102037.09;5034633;28;20017;-62
2022/03/03 03:16:29;;;;;;;20.52;11.27;;;;;;;1.51;65.83;102038.00;5044004;28;20124;-68
2022/03/03 03:18:54;;;;;;;17.73;10.30;;;;;;;1.54;65.83;102036.31;5044493;28;20075;-68
2022/03/03 03:21:20;;;;;;;23.83;12.65;;;;;;;1.48;65.77;102032.72;5038747;28;20025;-68
2022/03/03 03:23:46;;;;;;;18.77;11.68;;;;;;;1.42;66.13;102032.63;5048816;28;20048;-67
2022/03/03 03:26:11;;;;;;;20.45;12.82;;;;;;;1.41;66.07;102032.56;5048425;28;20108;-67
2022/03/03 03:28:37;;;;;;;20.50;12.23;;;;;;;1.33;66.93;102029.78;5047225;28;20163;-68
2022/03/03 03:31:02;;;;;;;19.23;11.85;;;;;;;1.36;66.55;102024.66;5043282;28;20025;-66
2022/03/03 03:33:27;;;;;;;21.33;11.95;;;;;;;1.35;66.37;102016.00;5036037;28;20559;-68
2022/03/03 03:35:53;;;;;;;23.55;12.40;;;;;;;1.36;66.37;102020.34;5013193;28;20038;-67
2022/03/03 03:38:18;;;;;;;17.50;10.93;;;;;;;1.37;66.50;102016.91;5027378;28;20108;-67
2022/03/03 03:40:43;;;;;;;17.85;11.32;;;;;;;1.39;66.48;102017.81;5035577;28;20029;-68
2022/03/03 03:43:08;;;;;;;20.02;11.32;;;;;;;1.39;66.29;102015.22;5041372;28;20455;-66
2022/03/03 03:45:35;;;;;;;19.70;11.88;;;;;;;1.43;66.29;102008.38;5042203;28;20026;-66
2022/03/03 03:48:01;;;;;;;20.55;12.63;;;;;;;1.42;66.31;102011.84;5027865;28;20436;-67
2022/03/03 03:50:28;;;;;;;31.95;13.93;;;;;;;1.44;66.20;102004.94;5028967;28;20033;-67
2022/03/03 03:52:53;;;;;;;19.90;12.50;;;;;;;1.43;66.03;101991.91;5042523;28;20025;-67
2022/03/03 03:55:19;;;;;;;20.92;12.68;;;;;;;1.44;66.18;101996.28;5033815;28;20043;-65
2022/03/03 03:57:44;;;;;;;22.00;11.15;;;;;;;1.47;66.03;101999.81;5047637;28;20103;-65
2022/03/03 04:00:13;;;;;;;24.83;13.35;;;;;;;1.51;65.76;101998.19;5045370;28;20033;-67
2022/03/03 04:02:42;;;;;;;18.02;11.00;;;;;;;1.53;65.31;101995.59;5033258;28;20029;-66
2022/03/03 04:05:08;;;;;;;23.95;13.02;;;;;;;1.58;65.32;102000.06;5040136;28;20091;-63
2022/03/03 04:07:33;;;;;;;22.08;11.65;;;;;;;1.56;65.01;101995.69;5047043;28;20459;-66
2022/03/03 04:09:59;;;;;;;19.48;12.40;;;;;;;1.53;65.20;101996.47;5046081;28;20045;-67
2022/03/03 04:12:24;;;;;;;19.83;12.27;;;;;;;1.49;65.18;101994.66;5042747;28;20102;-68
2022/03/03 04:14:49;;;;;;;19.98;12.77;;;;;;;1.54;65.23;101994.75;5039891;28;20061;-68
2022/03/03 04:17:14;;;;;;;21.17;12.93;;;;;;;1.59;65.14;101993.13;5066412;28;20045;-68
2022/03/03 04:19:40;;;;;;;19.77;11.98;;;;;;;1.54;65.26;101995.66;5065626;28;20109;-66
2022/03/03 04:22:05;;;;;;;24.77;13.15;;;;;;;1.53;65.62;102001.66;5047851;28;20047;-66
2022/03/03 04:24:30;;;;;;;18.17;11.85;;;;;;;1.50;65.71;101999.00;5046435;28;20162;-66
2022/03/03 04:26:56;;;;;;;18.70;11.65;;;;;;;1.48;65.53;102004.16;5045433;28;20036;-67
2022/03/03 04:29:22;;;;;;;24.77;12.45;;;;;;;1.41;65.81;102004.84;5045753;28;20474;-66
2022/03/03 04:31:49;;;;;;;19.63;11.10;;;;;;;1.39;65.98;102003.97;5045226;28;20033;-67
2022/03/03 04:34:14;;;;;;;20.65;12.82;;;;;;;1.37;66.16;102000.44;5045165;28;20040;-67
2022/03/03 04:36:39;;;;;;;27.40;13.57;;;;;;;1.37;66.21;101995.25;5046242;28;20029;-66
2022/03/03 04:39:05;;;;;;;26.30;14.93;;;;;;;1.31;66.21;101997.69;5047094;28;20028;-67
2022/03/03 04:41:30;;;;;;;22.98;13.77;;;;;;;1.33;65.90;102001.22;5045383;28;20063;-68
2022/03/03 04:43:55;;;;;;;28.13;14.10;;;;;;;1.44;65.65;101997.13;5044134;28;20300;-68
2022/03/03 04:46:21;;;;;;;21.63;12.93;;;;;;;1.61;65.04;101994.03;5045246;28;20036;-67
2022/03/03 04:48:46;;;;;;;22.05;13.18;;;;;;;1.80;64.50;101994.47;5046288;28;20038;-68
2022/03/03 04:51:11;;;;;;;25.23;13.43;;;;;;;1.91;63.86;101997.25;5045092;28;20033;-67
2022/03/03 04:53:37;;;;;;;24.58;13.90;;;;;;;2.19;62.78;101988.31;5046696;28;20032;-61
2022/03/03 04:56:02;;;;;;;24.08;14.13;;;;;;;2.57;61.62;101983.78;5045484;28;20021;-67
2022/03/03 04:58:27;;;;;;;21.40;11.88;;;;;;;2.71;60.90;101984.06;5046824;28;20032;-68
2022/03/03 05:00:53;;;;;;;26.77;13.75;;;;;;;2.70;61.30;101979.69;5045607;28;20045;-67
2022/03/03 05:03:18;;;;;;;24.65;14.20;;;;;;;2.74;60.78;101977.16;5045664;28;20154;-68
2022/03/03 05:05:44;;;;;;;24.60;14.10;;;;;;;2.78;60.54;101984.19;5045422;28;20021;-67
2022/03/03 05:08:09;;;;;;;24.92;13.80;;;;;;;2.76;60.23;101980.69;5044553;28;20153;-69
2022/03/03 05:10:35;;;;;;;27.48;14.18;;;;;;;2.77;60.42;101974.59;5052504;28;20044;-66
2022/03/03 05:13:01;;;;;;;25.35;13.18;;;;;;;2.73;60.47;101969.31;5054704;28;20064;-66
2022/03/03 05:15:26;;;;;;;25.10;13.50;;;;;;;2.78;60.45;101978.97;5044938;28;20293;-68
2022/03/03 05:17:52;;;;;;;22.73;13.93;;;;;;;2.70;60.90;101980.56;5044402;28;20059;-67
2022/03/03 05:20:17;;;;;;;25.27;13.65;;;;;;;2.63;60.78;101978.72;5045956;28;20487;-68
2022/03/03 05:22:42;;;;;;;25.05;13.10;;;;;;;2.70;60.41;101967.53;5044568;28;20110;-68
2022/03/03 05:25:10;;;;;;;23.88;13.00;;;;;;;2.67;60.57;101971.84;5045095;28;20465;-68
2022/03/03 05:27:36;;;;;;;27.23;13.20;;;;;;;2.58;60.82;101970.81;5044161;28;20044;-67
2022/03/03 05:30:02;;;;;;;23.92;13.68;;;;;;;2.57;60.99;101970.78;5050133;28;20044;-67
2022/03/03 05:32:27;;;;;;;36.25;15.50;;;;;;;2.47;61.10;101968.00;5032538;28;20037;-66
2022/03/03 05:34:53;;;;;;;22.50;14.15;;;;;;;2.56;60.80;101971.66;5047321;28;20048;-66
2022/03/03 05:37:23;;;;;;;24.08;13.82;;;;;;;2.55;61.38;101962.94;5045700;28;20036;-65
2022/03/03 05:39:49;;;;;;;23.92;12.75;;;;;;;1.80;62.93;101968.47;5045775;28;20108;-65
2022/03/03 05:42:15;;;;;;;26.30;14.38;;;;;;;0.94;66.42;101975.22;5044314;28;20379;-67
2022/03/03 05:44:41;;;;;;;28.92;14.80;;;;;;;0.69;67.89;101976.31;5043615;28;20021;-65
2022/03/03 05:47:07;;;;;;;22.30;13.40;;;;;;;0.61;68.47;101983.91;5027799;28;20024;-65
2022/03/03 05:49:33;;;;;;;26.90;15.02;;;;;;;0.59;68.54;101988.16;5045893;28;20056;-67
2022/03/03 05:51:58;;;;;;;27.17;14.73;;;;;;;0.55;68.52;101981.16;5045954;28;20272;-67
2022/03/03 05:54:23;;;;;;;22.95;14.30;;;;;;;0.56;68.76;101981.19;5044094;28;20028;-67
2022/03/03 05:56:52;;;;;;;27.88;16.17;;;;;;;0.56;68.90;101985.47;5045508;28;20067;-67
2022/03/03 05:59:21;;;;;;;26.15;15.48;;;;;;;0.54;69.09;101984.59;5049219;28;20033;-67
2022/03/03 06:01:46;;;;;;;22.13;14.80;;;;;;;0.54;68.52;101987.19;5045421;28;20025;-66
2022/03/03 06:04:15;;;;;;;26.83;15.50;;;;;;;0.50;68.73;101994.88;5042532;28;20100;-67
2022/03/03 06:06:45;;;;;;;24.08;13.02;;;;;;;0.52;68.54;101997.50;5043693;28;20083;-69
2022/03/03 06:09:14;;;;;;;26.30;14.93;;;;;;;0.47;68.94;101999.97;5044627;28;20032;-66
2022/03/03 06:11:47;;;;;;;29.48;15.30;;;;;;;0.41;68.90;101996.31;5043783;28;20120;-67
2022/03/03 06:14:16;;;;;;;23.38;13.60;;;;;;;0.41;68.76;101994.63;5023878;28;20037;-67
2022/03/03 06:16:42;;;;;;;22.70;13.93;;;;;;;0.36;68.91;101996.22;5023054;28;20022;-67
2022/03/03 06:19:08;;;;;;;24.48;12.90;;;;;;;0.32;69.30;101989.19;5042534;28;20115;-66
2022/03/03 06:21:33;;;;;;;25.30;14.32;;;;;;;0.27;69.22;101986.44;5024458;28;20084;-67
2022/03/03 06:23:59;;;;;;;26.77;15.07;;;;;;;0.27;69.29;101983.88;5044724;28;20150;-67
2022/03/03 06:26:25;;;;;;;26.10;15.02;;;;;;;0.22;69.43;101991.53;5064728;28;20012;-67
2022/03/03 06:28:51;;;;;;;23.38;14.00;;;;;;;0.21;69.43;101987.16;5054976;28;20034;-68
2022/03/03 06:31:16;;;;;;;29.40;15.82;;;;;;;0.20;69.62;101988.00;5047589;28;20013;-67
2022/03/03 06:33:43;;;;;;;25.77;14.57;;;;;;;0.21;69.45;101987.16;5045087;28;20041;-68
2022/03/03 06:36:08;;;;;;;22.65;13.93;;;;;;;0.19;69.62;101993.16;5044010;28;20055;-67
2022/03/03 06:38:34;;;;;;;28.98;14.32;;;;;;;0.20;69.58;101995.78;5042948;28;20491;-68
2022/03/03 06:40:59;;;;;;;23.60;13.95;;;;;;;0.23;69.32;101992.41;5044564;28;20037;-67
2022/03/03 06:43:26;;;;;;;25.92;15.40;;;;;;;0.21;69.59;102000.13;5042939;28;20017;-68
2022/03/03 06:45:51;;;;;;;25.20;14.02;;;;;;;0.27;69.37;101990.78;5042507;28;20028;-66
2022/03/03 06:48:17;;;;;;;21.60;13.07;;;;;;;0.28;69.12;102002.91;5043738;28;20032;-65
2022/03/03 06:50:42;;;;;;;24.77;14.40;;;;;;;0.29;69.05;102005.53;5044006;28;20028;-69
2022/03/03 06:53:08;;;;;;;24.00;14.52;;;;;;;0.32;69.14;101999.56;5043608;28;20384;-66
2022/03/03 06:55:34;;;;;;;25.70;14.40;;;;;;;0.31;69.07;101998.69;5061979;28;20028;-67
2022/03/03 06:58:00;;;;;;;24.73;15.48;;;;;;;0.34;69.22;101998.78;5066966;28;20029;-67
2022/03/03 07:00:33;;;;;;;27.20;14.63;;;;;;;0.35;68.97;102000.53;5066938;28;20033;-68
2022/03/03 07:03:02;;;;;;;28.80;15.05;;;;;;;0.41;68.98;102005.00;5067577;28;20009;-68
2022/03/03 07:05:28;;;;;;;27.92;13.70;;;;;;;0.44;68.82;102010.28;5051959;28;20490;-67
2022/03/03 07:07:54;;;;;;;24.77;15.25;;;;;;;0.49;68.76;102007.81;5047844;28;20063;-68
2022/03/03 07:10:23;;;;;;;28.73;15.65;;;;;;;0.52;68.68;102010.47;5047175;28;20122;-66
2022/03/03 07:12:54;;;;;;;25.98;14.68;;;;;;;0.59;68.86;102016.69;5047966;28;20064;-67
2022/03/03 07:15:24;;;;;;;26.70;15.30;;;;;;;0.62;68.43;102009.00;5046222;28;20083;-69
2022/03/03 07:17:51;;;;;;;;;;;;;;;0.68;68.28;102009.16;5053138;28;20080;-68
2022/03/03 07:20:19;;;;;;;29.95;13.75;;;;;;;0.74;67.83;102017.13;5056739;28;19917;-67
2022/03/03 07:23:00;;;;;;;26.08;14.90;;;;;;;0.82;67.61;102011.25;5032368;28;20343;-67
2022/03/03 07:25:32;;;;;;;21.55;13.55;;;;;;;0.90;67.03;102009.69;5054316;28;20017;-69
2022/03/03 07:28:00;;;;;;;24.33;14.60;;;;;;;0.93;66.64;102009.78;5065676;28;20037;-61
2022/03/03 07:30:26;;;;;;;25.37;15.23;;;;;;;1.02;66.62;102011.72;5053900;28;20024;-63
2022/03/03 07:33:30;;;;;;;22.88;13.35;;;;;;;1.12;65.87;102015.44;5058282;28;20031;-62
2022/03/03 07:35:57;;;;;;;24.75;13.52;;;;;;;1.18;65.30;102023.38;5044053;28;20743;-62
2022/03/03 07:38:26;;;;;;;24.27;14.52;;;;;;;1.25;65.22;102024.41;5055298;28;20081;-63
2022/03/03 07:40:52;;;;;;;26.40;14.88;;;;;;;1.31;65.02;102013.28;5053094;28;20028;-66
2022/03/03 07:43:18;;;;;;;22.70;13.48;;;;;;;1.38;64.10;102017.78;5056006;28;20475;-65
2022/03/03 07:45:46;;;;;;;24.15;13.88;;;;;;;1.46;64.32;102018.84;5058327;28;20107;-67
2022/03/03 07:48:13;;;;;;;25.05;13.98;;;;;;;1.58;64.23;102019.97;5046019;28;20090;-63
2022/03/03 07:50:39;;;;;;;20.52;13.68;;;;;;;1.65;63.69;102024.44;5045775;28;20012;-65
2022/03/03 07:53:13;;;;;;;23.40;14.27;;;;;;;1.63;63.94;102023.56;5045791;28;20025;-64
2022/03/03 07:55:42;;;;;;;20.63;13.73;;;;;;;1.69;63.43;102028.91;5043272;28;20102;-65
2022/03/03 07:58:13;;;;;;;26.52;14.50;;;;;;;1.81;63.34;102024.78;5049454;28;20044;-66
2022/03/03 08:00:43;;;;;;;26.95;14.35;;;;;;;1.84;63.16;102028.31;5046485;28;20021;-64
2022/03/03 08:03:13;;;;;;;26.63;15.60;;;;;;;1.94;63.11;102024.22;5046231;28;20887;-64
2022/03/03 08:05:39;;;;;;;25.20;15.00;;;;;;;1.96;62.97;102025.09;5045903;28;20036;-66
2022/03/03 08:08:06;;;;;;;31.02;15.98;;;;;;;1.99;62.88;102021.72;5044738;28;20116;-65
2022/03/03 08:10:32;;;;;;;25.38;15.75;;;;;;;2.09;62.54;102031.47;5047136;28;20065;-66
2022/03/03 08:12:58;;;;;;;29.15;16.95;;;;;;;2.17;62.03;102020.34;5066846;28;20407;-66
2022/03/03 08:15:24;;;;;;;26.60;15.38;;;;;;;2.23;61.73;102023.91;5065219;28;20025;-66
2022/03/03 08:17:51;;;;;;;24.85;14.23;;;;;;;2.31;61.32;102024.09;5066000;28;20115;-62
2022/03/03 08:20:17;;;;;;;26.00;14.55;;;;;;;2.39;61.06;102022.53;5064546;28;20029;-63
2022/03/03 08:22:42;;;;;;;31.42;13.45;;;;;;;2.43;61.21;102027.75;5066173;28;20032;-62
2022/03/03 08:25:10;;;;;;;25.77;14.77;;;;;;;2.47;60.86;102025.25;5062930;28;20406;-64
2022/03/03 08:27:37;;;;;;;22.00;12.88;;;;;;;2.61;60.61;102033.31;5055221;28;20055;-61
2022/03/03 08:30:04;;;;;;;26.65;13.02;;;;;;;2.67;60.95;102029.09;5045401;28;20028;-64
2022/03/03 08:32:34;;;;;;;23.70;13.98;;;;;;;2.73;60.46;102044.81;5055581;28;20032;-63
2022/03/03 08:35:19;;;;;;;23.88;12.98;;;;;;;2.76;60.48;102044.88;5052736;28;20036;-66
2022/03/03 08:37:51;;;;;;;24.60;13.88;;;;;;;2.85;59.98;102041.53;5052067;28;20024;-64
2022/03/03 08:40:17;;;;;;;23.67;14.55;;;;;;;2.87;60.48;102038.16;5055184;28;20040;-65
2022/03/03 08:42:56;;;;;;;22.52;14.15;;;;;;;2.89;60.54;102054.66;5049949;28;20450;-69
2022/03/03 08:45:23;;;;;;;21.48;14.05;;;;;;;2.92;60.25;102038.19;5046299;28;20024;-66
2022/03/03 08:48:12;;;;;;;25.38;14.25;;;;;;;3.06;59.70;102045.38;5045210;28;20017;-69
2022/03/03 08:50:39;;;;;;;19.27;11.82;;;;;;;3.16;59.41;102049.88;5045651;28;20108;-62
2022/03/03 08:53:05;;;;;;;23.48;13.35;;;;;;;3.28;59.05;102044.88;5045682;28;20438;-62
2022/03/03 08:55:31;;;;;;;25.10;13.05;;;;;;;3.41;58.38;102038.13;5052620;28;20028;-59
2022/03/03 08:57:58;;;;;;;25.00;12.75;;;;;;;3.47;58.04;102034.75;5050697;28;20450;-65
2022/03/03 09:00:24;;;;;;;23.88;13.02;;;;;;;3.54;57.37;102034.00;5045065;28;20448;-64
2022/03/03 09:02:49;;;;;;;19.95;12.38;;;;;;;3.71;57.56;102035.97;5052631;28;20056;-65
2022/03/03 09:05:15;;;;;;;22.95;12.13;;;;;;;3.82;57.48;102040.47;5055489;28;20016;-67
2022/03/03 09:07:40;;;;;;;21.70;12.77;;;;;;;3.84;57.11;102042.22;5049415;28;20096;-65
2022/03/03 09:10:07;;;;;;;22.98;13.52;;;;;;;3.95;56.70;102038.88;5054241;28;20410;-64
2022/03/03 09:12:32;;;;;;;22.55;12.50;;;;;;;4.03;56.06;102032.00;5037608;28;20035;-63
2022/03/03 09:14:58;;;;;;;22.25;13.35;;;;;;;4.15;56.28;102041.72;5054257;28;20219;-65
2022/03/03 09:17:23;;;;;;;20.02;12.70;;;;;;;4.23;56.21;102040.09;5054120;28;20459;-66
2022/03/03 09:19:48;;;;;;;22.75;11.18;;;;;;;4.37;55.98;102037.63;5053221;28;20029;-66
2022/03/03 09:22:14;;;;;;;20.00;12.82;;;;;;;4.49;55.22;102042.13;5043265;28;20048;-65
2022/03/03 09:24:39;;;;;;;20.98;12.35;;;;;;;4.54;54.95;102036.94;5040300;28;20323;-58
2022/03/03 09:27:04;;;;;;;20.25;12.52;;;;;;;4.59;55.14;102037.91;5042601;28;20021;-63
2022/03/03 09:29:33;;;;;;;20.48;13.18;;;;;;;4.72;54.29;102035.41;5025135;28;20017;-62
2022/03/03 09:32:02;;;;;;;22.52;12.98;;;;;;;4.82;54.31;102033.75;5043612;28;20487;-62
2022/03/03 09:34:28;;;;;;;18.25;11.55;;;;;;;4.93;54.22;102032.09;5043750;28;22013;-62
2022/03/03 09:36:54;;;;;;;22.05;12.93;;;;;;;4.95;53.87;102025.16;5043041;28;20494;-61
2022/03/03 09:39:20;;;;;;;18.90;12.30;;;;;;;5.10;53.97;102023.53;5039191;28;20475;-63
2022/03/03 09:41:45;;;;;;;23.90;12.65;;;;;;;5.21;53.80;102024.50;5042725;28;20028;-64
2022/03/03 09:44:13;;;;;;;21.92;13.32;;;;;;;5.26;53.54;102025.41;5043356;28;20028;-64
2022/03/03 09:46:38;;;;;;;19.30;12.35;;;;;;;5.35;53.31;102023.72;5043886;28;20116;-63
2022/03/03 09:49:04;;;;;;;20.20;11.90;;;;;;;5.46;52.63;102022.06;5042539;28;20035;-62
2022/03/03 09:51:30;;;;;;;20.35;12.10;;;;;;;5.50;52.61;102021.22;5041297;28;20032;-63
2022/03/03 09:53:56;;;;;;;18.27;11.73;;;;;;;5.62;52.19;102016.94;5042582;28;20059;-63
2022/03/03 09:56:21;;;;;;;18.90;11.27;;;;;;;5.70;50.87;102015.25;5029370;28;20085;-63
2022/03/03 09:58:46;;;;;;;20.85;12.15;;;;;;;5.72;50.48;102010.88;5036005;28;20037;-64
2022/03/03 10:01:13;;;;;;;19.90;11.35;;;;;;;5.90;50.47;102011.88;5043843;28;20021;-62
2022/03/03 10:03:39;;;;;;;26.92;12.10;;;;;;;5.84;50.18;102011.81;5042573;28;20055;-64
2022/03/03 10:06:04;;;;;;;17.20;11.43;;;;;;;5.80;50.28;102011.81;5042382;28;20060;-64
2022/03/03 10:08:30;;;;;;;18.65;10.88;;;;;;;6.03;50.58;102013.66;5043804;28;20224;-62
2022/03/03 10:11:00;;;;;;;29.05;12.10;;;;;;;6.17;50.42;102016.34;5044104;28;20092;-63
2022/03/03 10:13:27;;;;;;;20.80;11.93;;;;;;;6.26;50.10;102014.66;5042927;28;20790;-62
2022/03/03 10:15:57;;;;;;;21.65;12.48;;;;;;;6.16;49.76;102013.72;5025712;28;20049;-64
2022/03/03 10:18:24;;;;;;;23.20;12.52;;;;;;;6.24;49.53;102006.78;5043189;28;20025;-63
2022/03/03 10:20:50;;;;;;;20.60;11.23;;;;;;;6.22;49.02;102008.50;5035667;28;20074;-63
2022/03/03 10:23:17;;;;;;;21.83;11.93;;;;;;;6.41;49.05;102012.06;5033482;28;20041;-63
2022/03/03 10:25:44;;;;;;;20.50;11.98;;;;;;;6.56;48.86;102012.94;5035162;28;20431;-61
2022/03/03 10:28:18;;;;;;;18.40;10.52;;;;;;;6.59;48.24;102001.63;5043825;28;20383;-62
2022/03/03 10:30:59;;;;;;;22.77;11.70;;;;;;;6.65;49.24;102018.22;5051575;28;20025;-63
2022/03/03 10:33:33;;;;;;;25.30;11.27;;;;;;;6.83;48.52;102009.50;5059055;28;20053;-63
2022/03/03 10:36:04;;;;;;;23.05;10.50;;;;;;;6.88;47.46;102012.13;5055908;28;20479;-63
2022/03/03 10:38:30;;;;;;;16.50;11.20;;;;;;;6.98;47.00;102013.00;5046081;28;20033;-64
2022/03/03 10:40:57;;;;;;;19.02;10.73;;;;;;;6.86;45.84;102006.00;5055550;28;20013;-62
2022/03/03 10:43:22;;;;;;;16.55;10.55;;;;;;;7.04;46.08;102001.63;5056084;28;20017;-63
2022/03/03 10:45:58;;;;;;;17.88;10.60;;;;;;;7.06;45.60;101998.16;5039923;28;20039;-63
2022/03/03 10:48:25;;;;;;;17.23;10.98;;;;;;;7.08;46.34;101993.78;5048793;28;20024;-67
2022/03/03 10:50:52;;;;;;;21.50;10.35;;;;;;;7.26;45.49;102001.63;5042168;28;20570;-62
2022/03/03 10:53:18;;;;;;;19.27;11.50;;;;;;;7.48;45.11;101997.22;5027905;28;20052;-62
2022/03/03 10:56:05;;;;;;;17.30;11.15;;;;;;;7.53;45.52;102002.47;5029891;28;20476;-63
2022/03/03 10:58:48;;;;;;;21.85;11.02;;;;;;;7.70;44.83;101994.53;5031506;28;20071;-62
2022/03/03 11:01:15;;;;;;;19.58;10.50;;;;;;;7.85;45.15;101998.84;5050800;28;20040;-63
2022/03/03 11:03:41;;;;;;;15.82;10.38;;;;;;;7.98;46.03;101999.69;5053265;28;20052;-63
2022/03/03 11:06:07;;;;;;;19.02;11.40;;;;;;;8.13;45.97;101995.25;5047564;28;20060;-63
2022/03/03 11:08:34;;;;;;;13.48;9.95;;;;;;;8.17;45.23;101992.59;5065006;28;20032;-63
2022/03/03 11:11:00;;;;;;;17.85;10.90;;;;;;;8.18;44.36;101990.84;5065955;28;20132;-63
2022/03/03 11:13:27;;;;;;;24.13;11.30;;;;;;;8.20;44.90;101994.34;5034512;28;20910;-64
2022/03/03 11:15:52;;;;;;;18.38;11.07;;;;;;;8.24;45.05;101995.19;5036715;28;20038;-63
2022/03/03 11:18:18;;;;;;;21.15;11.60;;;;;;;8.30;44.49;101996.03;5038702;28;20091;-64